createdAt,value
2023-01-05T00:02:42.385Z,17.23
2023-01-05T00:06:46.348Z,16.43
2023-01-05T00:11:06.473Z,18.20
2023-01-05T00:15:28.725Z,15.37
2023-01-05T00:19:50.396Z,18.03
2023-01-05T00:23:53.419Z,17.03
2023-01-05T00:27:58.404Z,19.83
2023-01-05T00:32:02.469Z,13.20
2023-01-05T00:36:12.211Z,17.63
2023-01-05T00:40:17.907Z,20.63
2023-01-05T00:44:20.917Z,17.40
2023-01-05T00:48:24.079Z,18.20
2023-01-05T00:52:28.774Z,14.30
2023-01-05T00:56:31.801Z,18.43
2023-01-05T01:00:35.060Z,21.57
2023-01-05T01:04:38.109Z,19.77
2023-01-05T01:08:42.434Z,18.60
2023-01-05T01:12:45.284Z,24.23
2023-01-05T01:16:48.473Z,20.73
2023-01-05T01:20:51.904Z,16.50
2023-01-05T01:24:56.307Z,15.40
2023-01-05T01:28:59.177Z,17.00
2023-01-05T01:33:02.136Z,23.07
2023-01-05T01:37:05.122Z,15.40
2023-01-05T01:41:15.326Z,16.40
2023-01-05T01:45:21.618Z,12.40
2023-01-05T01:49:24.585Z,23.70
2023-01-05T01:53:30.892Z,20.60
2023-01-05T01:57:36.448Z,20.67
2023-01-05T02:01:39.548Z,17.43
2023-01-05T02:05:42.715Z,15.27
2023-01-05T02:09:46.940Z,16.57
2023-01-05T02:14:04.566Z,17.70
2023-01-05T02:18:30.920Z,17.03
2023-01-05T02:23:14.501Z,13.27
2023-01-05T02:27:48.663Z,18.80
2023-01-05T02:31:59.238Z,12.90
2023-01-05T02:36:11.085Z,16.73
2023-01-05T02:40:19.934Z,12.27
2023-01-05T02:44:23.694Z,15.23
2023-01-05T02:48:33.130Z,18.97
2023-01-05T02:52:41.506Z,19.93
2023-01-05T02:56:51.476Z,13.60
2023-01-05T03:00:59.903Z,23.13
2023-01-05T03:05:09.367Z,18.33
2023-01-05T03:09:12.709Z,15.33
2023-01-05T03:13:33.592Z,16.90
2023-01-05T03:17:44.254Z,14.63
2023-01-05T03:22:08.362Z,19.93
2023-01-05T03:26:33.878Z,16.03
2023-01-05T03:31:02.990Z,20.27
2023-01-05T03:35:30.580Z,18.97
2023-01-05T03:39:38.856Z,19.17
2023-01-05T03:43:43.885Z,20.03
2023-01-05T03:47:46.720Z,15.77
2023-01-05T03:51:49.710Z,13.67
2023-01-05T03:55:54.195Z,15.93
2023-01-05T03:59:57.630Z,23.17
2023-01-05T04:04:01.265Z,20.73
2023-01-05T04:08:04.785Z,19.63
2023-01-05T04:12:12.206Z,22.53
2023-01-05T04:16:19.782Z,17.73
2023-01-05T04:20:24.851Z,19.77
2023-01-05T04:24:29.129Z,21.63
2023-01-05T04:28:33.885Z,17.73
2023-01-05T04:32:38.247Z,18.00
2023-01-05T04:36:41.836Z,13.47
2023-01-05T04:40:51.245Z,16.77
2023-01-05T04:44:57.071Z,19.80
2023-01-05T04:49:00.265Z,18.20
2023-01-05T04:53:03.269Z,14.23
2023-01-05T04:57:06.604Z,23.50
2023-01-05T05:01:11.766Z,17.73
2023-01-05T05:05:17.089Z,23.13
2023-01-05T05:09:20.322Z,17.23
2023-01-05T05:13:24.965Z,19.00
2023-01-05T05:17:30.634Z,18.10
2023-01-05T05:21:34.427Z,17.63
2023-01-05T05:25:38.001Z,19.00
2023-01-05T05:29:41.284Z,19.33
2023-01-05T05:33:46.011Z,22.67
2023-01-05T05:37:54.419Z,15.53
2023-01-05T05:41:59.185Z,20.50
2023-01-05T05:46:02.217Z,21.27
2023-01-05T05:50:07.714Z,21.63
2023-01-05T05:54:10.685Z,27.13
2023-01-05T05:58:13.712Z,22.07
2023-01-05T06:02:18.135Z,18.77
2023-01-05T06:06:22.696Z,24.53
2023-01-05T06:10:25.677Z,20.33
2023-01-05T06:14:28.881Z,20.40
2023-01-05T06:18:31.681Z,18.73
2023-01-05T06:22:36.141Z,23.90
2023-01-05T06:26:39.226Z,18.43
2023-01-05T06:30:42.224Z,23.07
2023-01-05T06:34:45.209Z,19.53
2023-01-05T06:38:49.905Z,19.60
2023-01-05T06:42:53.325Z,19.03
2023-01-05T06:46:56.402Z,23.20
2023-01-05T06:50:59.337Z,18.77
2023-01-05T06:55:03.735Z,20.47
2023-01-05T06:59:06.596Z,24.07
2023-01-05T07:03:13.389Z,23.87
2023-01-05T07:07:17.219Z,18.43
2023-01-05T07:11:21.615Z,20.07
2023-01-05T07:15:24.768Z,20.70
2023-01-05T07:19:27.718Z,13.50
2023-01-05T07:23:31.159Z,20.43
2023-01-05T07:27:35.704Z,19.57
2023-01-05T07:31:39.941Z,21.40
2023-01-05T07:35:43.052Z,20.60
2023-01-05T07:39:46.972Z,16.13
2023-01-05T07:43:51.733Z,21.47
2023-01-05T07:47:55.205Z,17.30
2023-01-05T07:51:58.387Z,15.93
2023-01-05T07:56:02.648Z,16.37
2023-01-05T08:00:08.871Z,17.10
2023-01-05T08:04:17.606Z,16.40
2023-01-05T08:08:24.311Z,22.33
2023-01-05T08:12:28.826Z,23.03
2023-01-05T08:16:34.518Z,15.97
2023-01-05T08:20:37.362Z,19.90
2023-01-05T08:24:40.169Z,14.67
2023-01-05T08:28:44.377Z,21.57
2023-01-05T08:32:48.818Z,19.73
2023-01-05T08:36:52.319Z,16.23
2023-01-05T08:40:59.550Z,16.47
2023-01-05T08:45:02.626Z,22.10
2023-01-05T08:49:09.389Z,21.63
2023-01-05T08:53:12.370Z,18.40
2023-01-05T08:57:15.204Z,18.53
2023-01-05T09:01:20.951Z,20.17
2023-01-05T09:05:25.329Z,19.40
2023-01-05T09:09:28.233Z,19.50
2023-01-05T09:13:31.201Z,19.03
2023-01-05T09:17:35.968Z,19.47
2023-01-05T09:21:40.516Z,24.00
2023-01-05T09:25:43.541Z,24.50
2023-01-05T09:29:46.555Z,21.50
2023-01-05T09:33:49.758Z,19.23
2023-01-05T09:37:54.203Z,20.57
2023-01-05T09:41:59.927Z,21.97
2023-01-05T09:46:05.447Z,27.63
2023-01-05T09:50:18.349Z,22.60
2023-01-05T09:54:25.333Z,23.33
2023-01-05T09:58:34.728Z,19.20
2023-01-05T10:02:47.926Z,22.17
2023-01-05T10:06:54.727Z,19.47
2023-01-05T10:11:21.088Z,18.83
2023-01-05T10:15:24.158Z,18.50
2023-01-05T10:19:27.405Z,20.67
2023-01-05T10:23:51.034Z,20.73
2023-01-05T10:28:07.617Z,28.53
2023-01-05T10:32:23.737Z,16.83
2023-01-05T10:41:18.003Z,20.13
2023-01-05T10:45:23.200Z,17.70
2023-01-05T10:49:30.549Z,28.00
2023-01-05T10:53:37.387Z,14.97
2023-01-05T10:57:42.284Z,18.40
2023-01-05T11:01:50.090Z,25.37
2023-01-05T11:05:53.098Z,21.10
2023-01-05T11:09:56.216Z,21.00
2023-01-05T11:14:00.234Z,16.87
2023-01-05T11:18:05.261Z,16.43
2023-01-05T11:22:29.674Z,15.53
2023-01-05T11:26:35.519Z,16.03
2023-01-05T11:30:41.588Z,17.33
2023-01-05T11:34:47.770Z,19.17
2023-01-05T11:38:54.726Z,19.10
2023-01-05T11:42:58.687Z,17.00
2023-01-05T11:47:01.787Z,20.20
2023-01-05T11:51:06.500Z,19.67
2023-01-05T11:55:31.954Z,18.00
2023-01-05T11:59:38.780Z,21.90
2023-01-05T12:04:04.089Z,19.37
2023-01-05T12:08:14.672Z,18.30
2023-01-05T12:12:35.478Z,23.17
2023-01-05T12:16:46.909Z,14.77
2023-01-05T12:20:57.286Z,16.30
2023-01-05T12:25:12.377Z,14.77
2023-01-05T12:34:45.037Z,14.43
2023-01-05T12:39:08.000Z,20.37
2023-01-05T12:43:18.775Z,17.77
2023-01-05T12:47:45.706Z,17.00
2023-01-05T12:51:54.365Z,24.50
2023-01-05T12:56:00.670Z,21.00
2023-01-05T13:00:12.215Z,18.23
2023-01-05T13:04:34.275Z,17.10
2023-01-05T13:08:45.923Z,16.37
2023-01-05T13:12:51.621Z,20.40
2023-01-05T13:17:01.910Z,18.87
2023-01-05T13:21:12.703Z,18.87
2023-01-05T13:25:20.293Z,16.67
2023-01-05T13:29:27.232Z,18.53
2023-01-05T13:33:48.295Z,19.13
2023-01-05T13:38:33.188Z,18.53
2023-01-05T13:43:01.003Z,18.40
2023-01-05T13:47:27.020Z,17.87
2023-01-05T13:51:54.788Z,21.13
2023-01-05T13:56:02.130Z,21.93
2023-01-05T14:00:12.250Z,15.93
2023-01-05T14:04:20.769Z,17.20
2023-01-05T14:08:28.823Z,20.93
2023-01-05T14:12:49.534Z,16.27
2023-01-05T14:16:54.564Z,17.73
2023-01-05T14:20:57.451Z,20.83
2023-01-05T14:25:36.597Z,20.50
2023-01-05T14:30:21.144Z,23.00
2023-01-05T14:34:27.184Z,27.97
2023-01-05T14:38:30.862Z,20.97
2023-01-05T14:42:39.680Z,19.97
2023-01-05T14:46:48.754Z,20.63
2023-01-05T14:51:09.599Z,17.80
2023-01-05T14:55:37.818Z,20.57
2023-01-05T14:59:44.232Z,19.93
2023-01-05T15:03:52.087Z,18.80
2023-01-05T15:08:07.989Z,21.67
2023-01-05T15:12:35.915Z,17.37
2023-01-05T15:17:00.824Z,19.70
2023-01-05T15:21:36.779Z,19.47
2023-01-05T15:26:02.768Z,22.47
2023-01-05T15:30:25.455Z,24.60
2023-01-05T15:34:38.167Z,17.27
2023-01-05T15:38:46.502Z,19.90
2023-01-05T15:43:02.442Z,25.60
2023-01-05T15:47:12.248Z,24.27
2023-01-05T15:51:26.643Z,29.83
2023-01-05T15:55:31.543Z,26.53
2023-01-05T15:59:39.892Z,36.97
2023-01-05T16:03:44.372Z,29.23
2023-01-05T16:07:54.747Z,28.13
2023-01-05T16:12:01.231Z,27.60
2023-01-05T16:16:12.904Z,20.27
2023-01-05T16:20:21.986Z,19.40
2023-01-05T16:24:32.992Z,21.40
2023-01-05T16:28:35.824Z,21.67
2023-01-05T16:32:41.756Z,25.80
2023-01-05T16:37:00.398Z,22.97
2023-01-05T16:41:23.689Z,19.70
2023-01-05T16:45:29.696Z,22.13
2023-01-05T16:49:43.590Z,20.23
2023-01-05T16:53:52.173Z,15.30
2023-01-05T16:57:57.121Z,21.73
2023-01-05T17:02:00.002Z,35.50
2023-01-05T17:06:03.861Z,29.87
2023-01-05T17:10:08.641Z,24.33
2023-01-05T17:14:14.249Z,23.47
2023-01-05T17:18:18.946Z,22.77
2023-01-05T17:22:21.775Z,26.77
2023-01-05T17:26:28.480Z,24.77
2023-01-05T17:30:32.601Z,28.23
2023-01-05T17:34:36.330Z,22.23
2023-01-05T17:38:40.738Z,24.20
2023-01-05T17:42:43.540Z,29.00
2023-01-05T17:46:49.255Z,41.00
2023-01-05T17:50:54.212Z,32.53
2023-01-05T17:54:57.263Z,22.00
2023-01-05T17:59:00.017Z,30.60
2023-01-05T18:03:04.373Z,24.37
2023-01-05T18:11:16.434Z,23.97
2023-01-05T18:15:20.575Z,27.37
2023-01-05T18:19:25.161Z,28.50
2023-01-05T18:23:27.923Z,31.10
2023-01-05T18:27:35.324Z,31.13
2023-01-05T18:31:40.188Z,29.47
2023-01-05T18:35:46.025Z,41.23
2023-01-05T18:39:48.853Z,59.53
2023-01-05T18:43:51.937Z,37.87
2023-01-05T18:47:58.069Z,30.37
2023-01-05T18:52:02.301Z,34.23
2023-01-05T18:56:07.153Z,35.23
2023-01-05T19:00:10.897Z,37.13
2023-01-05T19:04:15.663Z,39.30
2023-01-05T19:08:19.864Z,34.17
2023-01-05T19:12:22.897Z,31.40
2023-01-05T19:16:27.592Z,39.87
2023-01-05T19:20:31.603Z,35.20
2023-01-05T19:24:36.215Z,29.90
2023-01-05T19:28:41.038Z,31.13
2023-01-05T19:32:43.832Z,30.53
2023-01-05T19:36:47.176Z,36.47
2023-01-05T19:40:51.311Z,31.77
2023-01-05T19:44:54.014Z,30.30
2023-01-05T19:48:59.691Z,24.23
2023-01-05T19:53:03.134Z,24.87
2023-01-05T19:57:07.368Z,26.67
2023-01-05T20:01:12.166Z,23.47
2023-01-05T20:05:15.072Z,22.03
2023-01-05T20:09:19.823Z,31.17
2023-01-05T20:13:24.111Z,25.53
2023-01-05T20:17:27.276Z,30.17
2023-01-05T20:21:32.232Z,25.37
2023-01-05T20:25:34.946Z,26.77
2023-01-05T20:29:40.434Z,28.60
2023-01-05T20:33:43.178Z,31.83
2023-01-05T20:37:45.949Z,29.90
2023-01-05T20:41:50.772Z,24.33
2023-01-05T20:45:54.891Z,30.70
2023-01-05T20:49:57.607Z,28.77
2023-01-05T20:54:02.376Z,29.80
2023-01-05T20:58:05.263Z,35.23
2023-01-05T21:02:22.349Z,28.77
2023-01-05T21:06:27.872Z,32.77
2023-01-05T21:10:31.066Z,29.30
2023-01-05T21:14:33.823Z,30.57
2023-01-05T21:18:38.001Z,28.27
2023-01-05T21:22:40.782Z,27.80
2023-01-05T21:26:43.828Z,32.70
2023-01-05T21:30:46.940Z,27.93
2023-01-05T21:34:51.097Z,27.83
2023-01-05T21:39:01.570Z,30.13
2023-01-05T21:43:05.947Z,25.90
2023-01-05T21:47:09.083Z,26.20
2023-01-05T21:51:30.617Z,29.00
2023-01-05T21:55:50.890Z,28.63
2023-01-05T21:59:54.104Z,29.50
2023-01-05T22:03:57.775Z,27.67
2023-01-05T22:08:02.012Z,28.63
2023-01-05T22:12:07.144Z,33.83
2023-01-05T22:16:10.681Z,27.27
2023-01-05T22:20:14.700Z,30.90
2023-01-05T22:24:19.224Z,31.23
2023-01-05T22:28:22.013Z,25.30
2023-01-05T22:32:24.812Z,27.33
2023-01-05T22:36:29.266Z,24.57
2023-01-05T22:40:33.502Z,28.50
2023-01-05T22:44:36.344Z,24.73
2023-01-05T22:48:41.149Z,24.70
2023-01-05T22:52:43.914Z,25.73
2023-01-05T22:56:48.032Z,18.10
2023-01-05T23:00:50.808Z,19.53
2023-01-05T23:04:53.547Z,20.37
2023-01-05T23:08:57.318Z,20.37
2023-01-05T23:13:01.446Z,15.20
2023-01-05T23:17:04.361Z,16.77
2023-01-05T23:21:14.690Z,16.60
2023-01-05T23:25:17.650Z,16.60
2023-01-05T23:29:22.015Z,17.13
2023-01-05T23:33:26.997Z,15.63
2023-01-05T23:37:30.476Z,14.10
2023-01-05T23:41:33.218Z,16.10
2023-01-05T23:45:37.292Z,14.63
2023-01-05T23:49:40.036Z,8.93
2023-01-05T23:53:43.510Z,12.87
2023-01-05T23:57:46.244Z,10.30
